sensor_id;sensor_type;location;lat;lon;timestamp;temperature;humidity
14670;DHT22;7423;48.722;9.350;2023-05-07T00:01:45;17.70;99.90
14670;DHT22;7423;48.722;9.350;2023-05-07T00:04:12;17.60;99.90
14670;DHT22;7423;48.722;9.350;2023-05-07T00:06:40;17.60;99.90
14670;DHT22;7423;48.722;9.350;2023-05-07T00:09:07;17.60;99.90
14670;DHT22;7423;48.722;9.350;2023-05-07T00:11:34;17.60;99.90
14670;DHT22;7423;48.722;9.350;2023-05-07T00:14:02;17.60;99.90
14670;DHT22;7423;48.722;9.350;2023-05-07T00:16:29;17.60;99.90
14670;DHT22;7423;48.722;9.350;2023-05-07T00:18:57;17.60;99.90
14670;DHT22;7423;48.722;9.350;2023-05-07T00:21:24;17.50;99.90
14670;DHT22;7423;48.722;9.350;2023-05-07T00:23:53;17.50;99.90
14670;DHT22;7423;48.722;9.350;2023-05-07T00:26:20;17.50;99.90
14670;DHT22;7423;48.722;9.350;2023-05-07T00:28:47;17.40;99.90
14670;DHT22;7423;48.722;9.350;2023-05-07T00:31:14;17.40;99.90
14670;DHT22;7423;48.722;9.350;2023-05-07T00:33:41;17.40;99.90
14670;DHT22;7423;48.722;9.350;2023-05-07T00:36:08;17.30;99.90
14670;DHT22;7423;48.722;9.350;2023-05-07T00:38:35;17.30;99.90
14670;DHT22;7423;48.722;9.350;2023-05-07T00:41:01;17.30;99.90
14670;DHT22;7423;48.722;9.350;2023-05-07T00:43:28;17.30;99.90
14670;DHT22;7423;48.722;9.350;2023-05-07T00:45:56;17.20;99.90
14670;DHT22;7423;48.722;9.350;2023-05-07T00:48:23;17.20;99.90
14670;DHT22;7423;48.722;9.350;2023-05-07T00:50:50;17.20;99.90
14670;DHT22;7423;48.722;9.350;2023-05-07T00:53:17;17.20;99.90
14670;DHT22;7423;48.722;9.350;2023-05-07T00:55:44;17.20;99.90
14670;DHT22;7423;48.722;9.350;2023-05-07T00:58:11;17.20;99.90
14670;DHT22;7423;48.722;9.350;2023-05-07T01:00:38;17.10;99.90
14670;DHT22;7423;48.722;9.350;2023-05-07T01:03:05;17.10;99.90
14670;DHT22;7423;48.722;9.350;2023-05-07T01:05:33;17.10;99.90
14670;DHT22;7423;48.722;9.350;2023-05-07T01:08:01;17.20;99.90
14670;DHT22;7423;48.722;9.350;2023-05-07T01:10:28;17.20;99.90
14670;DHT22;7423;48.722;9.350;2023-05-07T01:12:58;17.20;99.90
14670;DHT22;7423;48.722;9.350;2023-05-07T01:15:27;17.20;99.90
14670;DHT22;7423;48.722;9.350;2023-05-07T01:17:56;17.10;99.90
14670;DHT22;7423;48.722;9.350;2023-05-07T01:20:23;17.10;99.90
14670;DHT22;7423;48.722;9.350;2023-05-07T01:22:51;17.10;99.90
14670;DHT22;7423;48.722;9.350;2023-05-07T01:25:18;17.00;99.90
14670;DHT22;7423;48.722;9.350;2023-05-07T01:27:46;17.00;99.90
14670;DHT22;7423;48.722;9.350;2023-05-07T01:30:13;16.90;99.90
14670;DHT22;7423;48.722;9.350;2023-05-07T01:32:43;16.90;99.90
14670;DHT22;7423;48.722;9.350;2023-05-07T01:35:19;17.60;99.90
14670;DHT22;7423;48.722;9.350;2023-05-07T01:37:47;16.80;99.90
14670;DHT22;7423;48.722;9.350;2023-05-07T01:40:14;16.80;99.90
14670;DHT22;7423;48.722;9.350;2023-05-07T01:42:43;16.80;99.90
14670;DHT22;7423;48.722;9.350;2023-05-07T01:45:10;16.80;99.90
14670;DHT22;7423;48.722;9.350;2023-05-07T01:47:37;16.80;99.90
14670;DHT22;7423;48.722;9.350;2023-05-07T01:50:06;16.80;99.90
14670;DHT22;7423;48.722;9.350;2023-05-07T01:52:37;16.80;99.90
14670;DHT22;7423;48.722;9.350;2023-05-07T01:55:06;16.80;99.90
14670;DHT22;7423;48.722;9.350;2023-05-07T01:57:33;16.70;99.90
14670;DHT22;7423;48.722;9.350;2023-05-07T02:00:00;16.70;99.90
14670;DHT22;7423;48.722;9.350;2023-05-07T02:02:27;16.70;99.90
14670;DHT22;7423;48.722;9.350;2023-05-07T02:04:54;16.60;99.90
14670;DHT22;7423;48.722;9.350;2023-05-07T02:07:21;16.60;99.90
14670;DHT22;7423;48.722;9.350;2023-05-07T02:09:48;16.60;99.90
14670;DHT22;7423;48.722;9.350;2023-05-07T02:12:15;16.60;99.90
14670;DHT22;7423;48.722;9.350;2023-05-07T02:14:42;16.60;99.90
14670;DHT22;7423;48.722;9.350;2023-05-07T02:17:09;16.60;99.90
14670;DHT22;7423;48.722;9.350;2023-05-07T02:19:35;16.50;99.90
14670;DHT22;7423;48.722;9.350;2023-05-07T02:22:02;16.50;99.90
14670;DHT22;7423;48.722;9.350;2023-05-07T02:24:29;16.50;99.90
14670;DHT22;7423;48.722;9.350;2023-05-07T02:26:56;16.50;99.90
14670;DHT22;7423;48.722;9.350;2023-05-07T02:29:23;16.50;99.90
14670;DHT22;7423;48.722;9.350;2023-05-07T02:31:50;16.40;99.90
14670;DHT22;7423;48.722;9.350;2023-05-07T02:34:19;16.50;99.90
14670;DHT22;7423;48.722;9.350;2023-05-07T02:36:46;16.40;99.90
14670;DHT22;7423;48.722;9.350;2023-05-07T02:39:13;16.40;99.90
14670;DHT22;7423;48.722;9.350;2023-05-07T02:41:41;16.40;99.90
14670;DHT22;7423;48.722;9.350;2023-05-07T02:44:08;16.40;99.90
14670;DHT22;7423;48.722;9.350;2023-05-07T02:46:35;16.40;99.90
14670;DHT22;7423;48.722;9.350;2023-05-07T02:49:02;16.40;99.90
14670;DHT22;7423;48.722;9.350;2023-05-07T02:51:30;16.40;99.90
14670;DHT22;7423;48.722;9.350;2023-05-07T02:53:57;16.40;99.90
14670;DHT22;7423;48.722;9.350;2023-05-07T02:56:26;16.30;99.90
14670;DHT22;7423;48.722;9.350;2023-05-07T02:58:53;16.20;99.90
14670;DHT22;7423;48.722;9.350;2023-05-07T03:01:20;16.00;99.90
14670;DHT22;7423;48.722;9.350;2023-05-07T03:03:47;16.30;99.90
14670;DHT22;7423;48.722;9.350;2023-05-07T03:06:14;16.10;99.90
14670;DHT22;7423;48.722;9.350;2023-05-07T03:08:42;16.10;99.90
14670;DHT22;7423;48.722;9.350;2023-05-07T03:11:09;16.10;99.90
14670;DHT22;7423;48.722;9.350;2023-05-07T03:13:36;16.10;99.90
14670;DHT22;7423;48.722;9.350;2023-05-07T03:16:03;16.10;99.90
14670;DHT22;7423;48.722;9.350;2023-05-07T03:18:30;16.10;99.90
14670;DHT22;7423;48.722;9.350;2023-05-07T03:20:57;16.10;99.90
14670;DHT22;7423;48.722;9.350;2023-05-07T03:23:24;16.10;99.90
14670;DHT22;7423;48.722;9.350;2023-05-07T03:25:50;16.10;99.90
14670;DHT22;7423;48.722;9.350;2023-05-07T03:28:17;16.10;99.90
14670;DHT22;7423;48.722;9.350;2023-05-07T03:30:44;16.00;99.90
14670;DHT22;7423;48.722;9.350;2023-05-07T03:33:11;16.10;99.90
14670;DHT22;7423;48.722;9.350;2023-05-07T03:35:38;16.00;99.90
14670;DHT22;7423;48.722;9.350;2023-05-07T03:38:05;15.90;99.90
14670;DHT22;7423;48.722;9.350;2023-05-07T03:40:32;15.80;99.90
14670;DHT22;7423;48.722;9.350;2023-05-07T03:43:00;15.80;99.90
14670;DHT22;7423;48.722;9.350;2023-05-07T03:45:27;15.70;99.90
14670;DHT22;7423;48.722;9.350;2023-05-07T03:47:54;15.70;99.90
14670;DHT22;7423;48.722;9.350;2023-05-07T03:50:21;15.60;99.90
14670;DHT22;7423;48.722;9.350;2023-05-07T03:52:47;15.60;99.90
14670;DHT22;7423;48.722;9.350;2023-05-07T03:55:14;15.60;99.90
14670;DHT22;7423;48.722;9.350;2023-05-07T03:57:41;15.60;99.90
14670;DHT22;7423;48.722;9.350;2023-05-07T04:00:08;15.50;99.90
14670;DHT22;7423;48.722;9.350;2023-05-07T04:02:36;15.50;99.90
14670;DHT22;7423;48.722;9.350;2023-05-07T04:05:03;15.50;99.90
14670;DHT22;7423;48.722;9.350;2023-05-07T04:07:30;15.50;99.90
14670;DHT22;7423;48.722;9.350;2023-05-07T04:09:57;15.60;99.90
14670;DHT22;7423;48.722;9.350;2023-05-07T04:12:24;15.60;99.90
14670;DHT22;7423;48.722;9.350;2023-05-07T04:14:51;15.60;99.90
14670;DHT22;7423;48.722;9.350;2023-05-07T04:17:17;15.60;99.90
14670;DHT22;7423;48.722;9.350;2023-05-07T04:19:44;15.50;99.90
14670;DHT22;7423;48.722;9.350;2023-05-07T04:22:12;15.50;99.90
14670;DHT22;7423;48.722;9.350;2023-05-07T04:24:39;15.50;99.90
14670;DHT22;7423;48.722;9.350;2023-05-07T04:27:06;15.40;99.90
14670;DHT22;7423;48.722;9.350;2023-05-07T04:29:32;15.50;99.90
14670;DHT22;7423;48.722;9.350;2023-05-07T04:31:59;15.40;99.90
14670;DHT22;7423;48.722;9.350;2023-05-07T04:34:26;15.40;99.90
14670;DHT22;7423;48.722;9.350;2023-05-07T04:36:53;15.40;99.90
14670;DHT22;7423;48.722;9.350;2023-05-07T04:39:20;15.30;99.90
14670;DHT22;7423;48.722;9.350;2023-05-07T04:41:47;15.30;99.90
14670;DHT22;7423;48.722;9.350;2023-05-07T04:44:14;15.30;99.90
14670;DHT22;7423;48.722;9.350;2023-05-07T04:46:41;15.30;99.90
14670;DHT22;7423;48.722;9.350;2023-05-07T04:49:07;15.20;99.90
14670;DHT22;7423;48.722;9.350;2023-05-07T04:51:34;15.20;99.90
14670;DHT22;7423;48.722;9.350;2023-05-07T04:54:01;15.20;99.90
14670;DHT22;7423;48.722;9.350;2023-05-07T04:56:28;15.30;99.90
14670;DHT22;7423;48.722;9.350;2023-05-07T04:58:56;15.30;99.90
14670;DHT22;7423;48.722;9.350;2023-05-07T05:01:23;15.30;99.90
14670;DHT22;7423;48.722;9.350;2023-05-07T05:03:50;15.30;99.90
14670;DHT22;7423;48.722;9.350;2023-05-07T05:06:17;15.30;99.90
14670;DHT22;7423;48.722;9.350;2023-05-07T05:08:43;15.30;99.90
14670;DHT22;7423;48.722;9.350;2023-05-07T05:11:10;15.30;99.90
14670;DHT22;7423;48.722;9.350;2023-05-07T05:13:37;15.40;99.90
14670;DHT22;7423;48.722;9.350;2023-05-07T05:16:05;15.40;99.90
14670;DHT22;7423;48.722;9.350;2023-05-07T05:18:33;15.30;99.90
14670;DHT22;7423;48.722;9.350;2023-05-07T05:20:59;15.40;99.90
14670;DHT22;7423;48.722;9.350;2023-05-07T05:23:26;15.50;99.90
14670;DHT22;7423;48.722;9.350;2023-05-07T05:25:57;15.40;99.90
14670;DHT22;7423;48.722;9.350;2023-05-07T05:28:24;15.40;99.90
14670;DHT22;7423;48.722;9.350;2023-05-07T05:30:51;15.40;99.90
14670;DHT22;7423;48.722;9.350;2023-05-07T05:33:18;15.40;99.90
14670;DHT22;7423;48.722;9.350;2023-05-07T05:35:45;15.50;99.90
14670;DHT22;7423;48.722;9.350;2023-05-07T05:38:12;15.50;99.90
14670;DHT22;7423;48.722;9.350;2023-05-07T05:40:38;15.50;99.90
14670;DHT22;7423;48.722;9.350;2023-05-07T05:43:06;15.50;99.90
14670;DHT22;7423;48.722;9.350;2023-05-07T05:45:32;15.60;99.90
14670;DHT22;7423;48.722;9.350;2023-05-07T05:47:59;15.60;99.90
14670;DHT22;7423;48.722;9.350;2023-05-07T05:50:26;15.60;99.90
14670;DHT22;7423;48.722;9.350;2023-05-07T05:52:53;15.70;99.90
14670;DHT22;7423;48.722;9.350;2023-05-07T05:55:20;15.70;99.90
14670;DHT22;7423;48.722;9.350;2023-05-07T05:57:48;15.70;99.90
14670;DHT22;7423;48.722;9.350;2023-05-07T06:00:15;15.80;99.90
14670;DHT22;7423;48.722;9.350;2023-05-07T06:02:42;15.80;99.90
14670;DHT22;7423;48.722;9.350;2023-05-07T06:05:10;15.90;99.90
14670;DHT22;7423;48.722;9.350;2023-05-07T06:07:36;16.80;99.90
14670;DHT22;7423;48.722;9.350;2023-05-07T06:10:04;16.10;99.90
14670;DHT22;7423;48.722;9.350;2023-05-07T06:12:31;16.10;99.90
14670;DHT22;7423;48.722;9.350;2023-05-07T06:14:58;16.20;99.90
14670;DHT22;7423;48.722;9.350;2023-05-07T06:17:25;16.30;99.90
14670;DHT22;7423;48.722;9.350;2023-05-07T06:19:52;16.30;99.90
14670;DHT22;7423;48.722;9.350;2023-05-07T06:22:19;16.30;99.90
14670;DHT22;7423;48.722;9.350;2023-05-07T06:24:46;16.30;99.90
14670;DHT22;7423;48.722;9.350;2023-05-07T06:27:13;16.40;99.90
14670;DHT22;7423;48.722;9.350;2023-05-07T06:29:39;16.40;99.90
14670;DHT22;7423;48.722;9.350;2023-05-07T06:32:07;16.50;99.90
14670;DHT22;7423;48.722;9.350;2023-05-07T06:34:36;16.50;99.90
14670;DHT22;7423;48.722;9.350;2023-05-07T06:37:03;16.60;99.90
14670;DHT22;7423;48.722;9.350;2023-05-07T06:39:30;16.60;99.90
14670;DHT22;7423;48.722;9.350;2023-05-07T06:41:57;16.60;99.90
14670;DHT22;7423;48.722;9.350;2023-05-07T06:44:24;16.70;99.90
14670;DHT22;7423;48.722;9.350;2023-05-07T06:46:51;16.70;99.90
14670;DHT22;7423;48.722;9.350;2023-05-07T06:49:18;16.80;99.90
14670;DHT22;7423;48.722;9.350;2023-05-07T06:51:45;16.80;99.90
14670;DHT22;7423;48.722;9.350;2023-05-07T06:54:12;16.90;99.90
14670;DHT22;7423;48.722;9.350;2023-05-07T06:56:39;16.80;99.90
14670;DHT22;7423;48.722;9.350;2023-05-07T06:59:06;16.90;99.90
14670;DHT22;7423;48.722;9.350;2023-05-07T07:01:33;17.00;99.90
14670;DHT22;7423;48.722;9.350;2023-05-07T07:04:00;17.00;99.90
14670;DHT22;7423;48.722;9.350;2023-05-07T07:06:27;17.00;99.90
14670;DHT22;7423;48.722;9.350;2023-05-07T07:08:53;17.00;99.90
14670;DHT22;7423;48.722;9.350;2023-05-07T07:11:20;17.10;99.90
14670;DHT22;7423;48.722;9.350;2023-05-07T07:13:47;17.10;99.90
14670;DHT22;7423;48.722;9.350;2023-05-07T07:16:14;17.10;99.90
14670;DHT22;7423;48.722;9.350;2023-05-07T07:18:41;17.10;99.90
14670;DHT22;7423;48.722;9.350;2023-05-07T07:21:08;17.20;99.90
14670;DHT22;7423;48.722;9.350;2023-05-07T07:23:34;17.20;99.90
14670;DHT22;7423;48.722;9.350;2023-05-07T07:26:01;17.20;99.90
14670;DHT22;7423;48.722;9.350;2023-05-07T07:28:28;17.30;99.90
14670;DHT22;7423;48.722;9.350;2023-05-07T07:30:55;17.30;99.90
14670;DHT22;7423;48.722;9.350;2023-05-07T07:33:22;17.40;99.90
14670;DHT22;7423;48.722;9.350;2023-05-07T07:35:49;17.50;99.90
14670;DHT22;7423;48.722;9.350;2023-05-07T07:38:16;17.70;99.90
14670;DHT22;7423;48.722;9.350;2023-05-07T07:40:42;17.50;99.90
14670;DHT22;7423;48.722;9.350;2023-05-07T07:43:10;17.70;99.90
14670;DHT22;7423;48.722;9.350;2023-05-07T07:45:37;17.80;99.90
14670;DHT22;7423;48.722;9.350;2023-05-07T07:48:06;17.90;99.90
14670;DHT22;7423;48.722;9.350;2023-05-07T07:50:33;18.00;99.90
14670;DHT22;7423;48.722;9.350;2023-05-07T07:53:11;18.00;99.90
14670;DHT22;7423;48.722;9.350;2023-05-07T07:55:39;18.10;99.90
14670;DHT22;7423;48.722;9.350;2023-05-07T07:58:06;18.90;99.90
14670;DHT22;7423;48.722;9.350;2023-05-07T08:00:33;18.30;99.90
14670;DHT22;7423;48.722;9.350;2023-05-07T08:03:00;18.40;99.90
14670;DHT22;7423;48.722;9.350;2023-05-07T08:05:27;18.40;99.90
14670;DHT22;7423;48.722;9.350;2023-05-07T08:07:54;18.50;99.90
14670;DHT22;7423;48.722;9.350;2023-05-07T08:10:21;18.50;99.90
14670;DHT22;7423;48.722;9.350;2023-05-07T08:12:49;18.70;99.90
14670;DHT22;7423;48.722;9.350;2023-05-07T08:15:16;19.80;99.90
14670;DHT22;7423;48.722;9.350;2023-05-07T08:17:43;18.90;99.90
14670;DHT22;7423;48.722;9.350;2023-05-07T08:20:10;19.00;99.90
14670;DHT22;7423;48.722;9.350;2023-05-07T08:22:38;19.00;99.90
14670;DHT22;7423;48.722;9.350;2023-05-07T08:25:05;19.10;99.90
14670;DHT22;7423;48.722;9.350;2023-05-07T08:27:32;19.10;99.90
14670;DHT22;7423;48.722;9.350;2023-05-07T08:29:58;19.30;99.90
14670;DHT22;7423;48.722;9.350;2023-05-07T08:32:25;19.30;99.90
14670;DHT22;7423;48.722;9.350;2023-05-07T08:34:52;19.40;99.90
14670;DHT22;7423;48.722;9.350;2023-05-07T08:37:19;19.40;99.90
14670;DHT22;7423;48.722;9.350;2023-05-07T08:39:46;19.50;99.90
14670;DHT22;7423;48.722;9.350;2023-05-07T08:42:16;19.70;99.90
14670;DHT22;7423;48.722;9.350;2023-05-07T08:44:45;19.80;99.90
14670;DHT22;7423;48.722;9.350;2023-05-07T08:47:15;20.20;99.90
14670;DHT22;7423;48.722;9.350;2023-05-07T08:49:42;20.00;99.90
14670;DHT22;7423;48.722;9.350;2023-05-07T08:52:11;20.10;99.90
14670;DHT22;7423;48.722;9.350;2023-05-07T08:54:39;20.00;99.90
14670;DHT22;7423;48.722;9.350;2023-05-07T08:57:05;20.10;99.90
14670;DHT22;7423;48.722;9.350;2023-05-07T08:59:32;20.10;99.90
14670;DHT22;7423;48.722;9.350;2023-05-07T09:01:59;20.20;99.90
14670;DHT22;7423;48.722;9.350;2023-05-07T09:04:27;20.20;99.90
14670;DHT22;7423;48.722;9.350;2023-05-07T09:06:54;20.20;99.90
14670;DHT22;7423;48.722;9.350;2023-05-07T09:09:22;20.20;99.90
14670;DHT22;7423;48.722;9.350;2023-05-07T09:11:51;20.30;99.90
14670;DHT22;7423;48.722;9.350;2023-05-07T09:14:24;21.20;99.90
14670;DHT22;7423;48.722;9.350;2023-05-07T09:16:52;20.40;99.90
14670;DHT22;7423;48.722;9.350;2023-05-07T09:19:26;20.40;99.90
14670;DHT22;7423;48.722;9.350;2023-05-07T09:22:01;20.50;99.90
14670;DHT22;7423;48.722;9.350;2023-05-07T09:24:29;20.60;99.90
14670;DHT22;7423;48.722;9.350;2023-05-07T09:27:01;20.60;99.90
14670;DHT22;7423;48.722;9.350;2023-05-07T09:29:28;20.60;99.90
14670;DHT22;7423;48.722;9.350;2023-05-07T09:31:56;20.80;99.90
14670;DHT22;7423;48.722;9.350;2023-05-07T09:34:23;20.70;99.90
14670;DHT22;7423;48.722;9.350;2023-05-07T09:36:50;20.80;99.90
14670;DHT22;7423;48.722;9.350;2023-05-07T09:39:17;20.80;99.90
14670;DHT22;7423;48.722;9.350;2023-05-07T09:41:48;20.90;99.90
14670;DHT22;7423;48.722;9.350;2023-05-07T09:44:15;21.00;99.90
14670;DHT22;7423;48.722;9.350;2023-05-07T09:46:44;21.00;99.90
14670;DHT22;7423;48.722;9.350;2023-05-07T09:49:22;21.10;99.90
14670;DHT22;7423;48.722;9.350;2023-05-07T09:51:51;21.30;99.90
14670;DHT22;7423;48.722;9.350;2023-05-07T09:54:19;21.40;99.90
14670;DHT22;7423;48.722;9.350;2023-05-07T09:56:48;21.40;99.90
14670;DHT22;7423;48.722;9.350;2023-05-07T09:59:16;21.70;99.90
14670;DHT22;7423;48.722;9.350;2023-05-07T10:01:44;22.00;99.90
14670;DHT22;7423;48.722;9.350;2023-05-07T10:04:12;22.10;99.90
14670;DHT22;7423;48.722;9.350;2023-05-07T10:06:39;22.10;99.90
14670;DHT22;7423;48.722;9.350;2023-05-07T10:09:07;22.10;99.90
14670;DHT22;7423;48.722;9.350;2023-05-07T10:11:35;22.10;99.90
14670;DHT22;7423;48.722;9.350;2023-05-07T10:14:04;22.30;99.90
14670;DHT22;7423;48.722;9.350;2023-05-07T10:16:36;22.40;99.90
14670;DHT22;7423;48.722;9.350;2023-05-07T10:19:04;22.40;99.90
14670;DHT22;7423;48.722;9.350;2023-05-07T10:21:37;22.70;99.90
14670;DHT22;7423;48.722;9.350;2023-05-07T10:24:08;22.90;99.90
14670;DHT22;7423;48.722;9.350;2023-05-07T10:26:55;23.00;99.90
14670;DHT22;7423;48.722;9.350;2023-05-07T10:29:44;23.00;99.90
14670;DHT22;7423;48.722;9.350;2023-05-07T10:32:22;23.20;99.90
14670;DHT22;7423;48.722;9.350;2023-05-07T10:35:16;23.20;99.90
14670;DHT22;7423;48.722;9.350;2023-05-07T10:37:48;23.20;99.90
14670;DHT22;7423;48.722;9.350;2023-05-07T10:40:16;23.20;99.90
14670;DHT22;7423;48.722;9.350;2023-05-07T10:42:54;23.20;99.90
14670;DHT22;7423;48.722;9.350;2023-05-07T10:45:22;23.30;99.90
14670;DHT22;7423;48.722;9.350;2023-05-07T10:51:18;23.30;99.90
14670;DHT22;7423;48.722;9.350;2023-05-07T10:53:47;23.40;99.90
14670;DHT22;7423;48.722;9.350;2023-05-07T10:58:43;23.60;99.90
14670;DHT22;7423;48.722;9.350;2023-05-07T11:01:10;23.70;99.90
14670;DHT22;7423;48.722;9.350;2023-05-07T11:04:17;23.80;99.90
14670;DHT22;7423;48.722;9.350;2023-05-07T11:09:56;23.90;99.90
14670;DHT22;7423;48.722;9.350;2023-05-07T11:15:05;24.60;99.90
14670;DHT22;7423;48.722;9.350;2023-05-07T11:17:34;24.80;99.90
14670;DHT22;7423;48.722;9.350;2023-05-07T11:20:03;25.10;99.90
14670;DHT22;7423;48.722;9.350;2023-05-07T11:25:03;25.80;99.90
14670;DHT22;7423;48.722;9.350;2023-05-07T11:27:30;26.30;99.90
14670;DHT22;7423;48.722;9.350;2023-05-07T11:29:57;26.80;99.90
14670;DHT22;7423;48.722;9.350;2023-05-07T11:32:29;27.20;99.70
14670;DHT22;7423;48.722;9.350;2023-05-07T11:34:59;27.40;96.90
14670;DHT22;7423;48.722;9.350;2023-05-07T11:37:27;27.60;96.60
14670;DHT22;7423;48.722;9.350;2023-05-07T11:40:09;27.70;96.10
14670;DHT22;7423;48.722;9.350;2023-05-07T11:42:41;28.20;96.60
14670;DHT22;7423;48.722;9.350;2023-05-07T11:45:11;28.60;96.10
14670;DHT22;7423;48.722;9.350;2023-05-07T11:47:41;29.00;94.40
14670;DHT22;7423;48.722;9.350;2023-05-07T11:50:09;29.30;94.60
14670;DHT22;7423;48.722;9.350;2023-05-07T11:52:37;29.50;93.00
14670;DHT22;7423;48.722;9.350;2023-05-07T11:55:07;29.50;92.90
14670;DHT22;7423;48.722;9.350;2023-05-07T11:57:34;29.20;91.60
14670;DHT22;7423;48.722;9.350;2023-05-07T12:00:02;29.10;92.50
14670;DHT22;7423;48.722;9.350;2023-05-07T12:02:31;28.80;92.20
14670;DHT22;7423;48.722;9.350;2023-05-07T12:05:00;28.50;92.80
14670;DHT22;7423;48.722;9.350;2023-05-07T12:07:27;27.80;93.70
14670;DHT22;7423;48.722;9.350;2023-05-07T12:09:54;27.70;94.70
14670;DHT22;7423;48.722;9.350;2023-05-07T12:12:21;27.60;95.30
14670;DHT22;7423;48.722;9.350;2023-05-07T12:14:48;27.40;95.60
14670;DHT22;7423;48.722;9.350;2023-05-07T12:17:16;27.10;95.90
14670;DHT22;7423;48.722;9.350;2023-05-07T12:19:47;26.90;96.20
14670;DHT22;7423;48.722;9.350;2023-05-07T12:22:16;26.60;96.40
14670;DHT22;7423;48.722;9.350;2023-05-07T12:24:55;26.40;96.70
14670;DHT22;7423;48.722;9.350;2023-05-07T12:27:24;26.20;97.00
14670;DHT22;7423;48.722;9.350;2023-05-07T12:29:53;26.00;97.10
14670;DHT22;7423;48.722;9.350;2023-05-07T12:32:21;25.80;97.20
14670;DHT22;7423;48.722;9.350;2023-05-07T12:34:52;25.80;96.10
14670;DHT22;7423;48.722;9.350;2023-05-07T12:37:25;25.60;96.10
14670;DHT22;7423;48.722;9.350;2023-05-07T12:40:10;25.50;97.00
14670;DHT22;7423;48.722;9.350;2023-05-07T12:42:39;24.80;98.40
14670;DHT22;7423;48.722;9.350;2023-05-07T12:45:15;24.80;98.70
14670;DHT22;7423;48.722;9.350;2023-05-07T12:47:47;24.70;98.70
14670;DHT22;7423;48.722;9.350;2023-05-07T12:50:15;24.40;99.50
14670;DHT22;7423;48.722;9.350;2023-05-07T12:52:47;24.20;99.90
14670;DHT22;7423;48.722;9.350;2023-05-07T12:55:15;24.10;99.90
14670;DHT22;7423;48.722;9.350;2023-05-07T12:57:49;24.30;99.90
14670;DHT22;7423;48.722;9.350;2023-05-07T13:00:36;24.40;99.90
14670;DHT22;7423;48.722;9.350;2023-05-07T13:03:04;23.90;99.90
14670;DHT22;7423;48.722;9.350;2023-05-07T13:05:32;23.20;99.90
14670;DHT22;7423;48.722;9.350;2023-05-07T13:07:59;22.30;99.90
14670;DHT22;7423;48.722;9.350;2023-05-07T13:10:27;21.80;99.90
14670;DHT22;7423;48.722;9.350;2023-05-07T13:12:54;22.10;99.90
14670;DHT22;7423;48.722;9.350;2023-05-07T13:15:21;22.20;99.90
14670;DHT22;7423;48.722;9.350;2023-05-07T13:17:48;22.40;99.90
14670;DHT22;7423;48.722;9.350;2023-05-07T13:20:15;22.30;99.90
14670;DHT22;7423;48.722;9.350;2023-05-07T13:22:42;22.20;99.90
14670;DHT22;7423;48.722;9.350;2023-05-07T13:25:09;22.20;99.90
14670;DHT22;7423;48.722;9.350;2023-05-07T13:27:36;22.20;99.90
14670;DHT22;7423;48.722;9.350;2023-05-07T13:30:04;22.20;99.90
14670;DHT22;7423;48.722;9.350;2023-05-07T13:32:32;22.10;99.90
14670;DHT22;7423;48.722;9.350;2023-05-07T13:34:59;21.90;99.90
14670;DHT22;7423;48.722;9.350;2023-05-07T13:37:25;21.70;99.90
14670;DHT22;7423;48.722;9.350;2023-05-07T13:39:52;21.60;99.90
14670;DHT22;7423;48.722;9.350;2023-05-07T13:42:19;21.50;99.90
14670;DHT22;7423;48.722;9.350;2023-05-07T13:44:46;21.50;99.90
14670;DHT22;7423;48.722;9.350;2023-05-07T13:47:13;21.30;99.90
14670;DHT22;7423;48.722;9.350;2023-05-07T13:49:40;21.10;99.90
14670;DHT22;7423;48.722;9.350;2023-05-07T13:52:06;21.10;99.90
14670;DHT22;7423;48.722;9.350;2023-05-07T13:54:33;21.00;99.90
14670;DHT22;7423;48.722;9.350;2023-05-07T13:57:00;20.90;99.90
14670;DHT22;7423;48.722;9.350;2023-05-07T13:59:28;20.80;99.90
14670;DHT22;7423;48.722;9.350;2023-05-07T14:01:55;20.70;99.90
14670;DHT22;7423;48.722;9.350;2023-05-07T14:04:21;20.70;99.90
14670;DHT22;7423;48.722;9.350;2023-05-07T14:06:48;20.70;99.90
14670;DHT22;7423;48.722;9.350;2023-05-07T14:09:15;20.70;99.90
14670;DHT22;7423;48.722;9.350;2023-05-07T14:11:42;20.30;99.90
14670;DHT22;7423;48.722;9.350;2023-05-07T14:14:09;20.10;99.90
14670;DHT22;7423;48.722;9.350;2023-05-07T14:16:38;19.80;99.90
14670;DHT22;7423;48.722;9.350;2023-05-07T14:19:05;19.80;99.90
14670;DHT22;7423;48.722;9.350;2023-05-07T14:21:32;19.70;99.90
14670;DHT22;7423;48.722;9.350;2023-05-07T14:23:59;19.70;99.90
14670;DHT22;7423;48.722;9.350;2023-05-07T14:26:26;19.50;99.90
14670;DHT22;7423;48.722;9.350;2023-05-07T14:28:53;19.50;99.90
14670;DHT22;7423;48.722;9.350;2023-05-07T14:31:21;19.60;99.90
14670;DHT22;7423;48.722;9.350;2023-05-07T14:33:48;19.60;99.90
14670;DHT22;7423;48.722;9.350;2023-05-07T14:36:17;19.60;99.90
14670;DHT22;7423;48.722;9.350;2023-05-07T14:38:46;19.40;99.90
14670;DHT22;7423;48.722;9.350;2023-05-07T14:41:13;19.40;99.90
14670;DHT22;7423;48.722;9.350;2023-05-07T14:43:41;19.30;99.90
14670;DHT22;7423;48.722;9.350;2023-05-07T14:46:08;19.30;99.90
14670;DHT22;7423;48.722;9.350;2023-05-07T14:48:35;19.30;99.90
14670;DHT22;7423;48.722;9.350;2023-05-07T14:51:01;19.30;99.90
14670;DHT22;7423;48.722;9.350;2023-05-07T14:53:28;19.30;99.90
14670;DHT22;7423;48.722;9.350;2023-05-07T14:55:55;19.40;99.90
14670;DHT22;7423;48.722;9.350;2023-05-07T14:58:22;19.30;99.90
14670;DHT22;7423;48.722;9.350;2023-05-07T15:00:49;19.30;99.90
14670;DHT22;7423;48.722;9.350;2023-05-07T15:03:16;19.30;99.90
14670;DHT22;7423;48.722;9.350;2023-05-07T15:05:43;19.30;99.90
14670;DHT22;7423;48.722;9.350;2023-05-07T15:08:10;19.30;99.90
14670;DHT22;7423;48.722;9.350;2023-05-07T15:10:38;19.30;99.90
14670;DHT22;7423;48.722;9.350;2023-05-07T15:13:09;19.40;99.90
14670;DHT22;7423;48.722;9.350;2023-05-07T15:15:41;19.40;99.90
14670;DHT22;7423;48.722;9.350;2023-05-07T15:18:09;19.40;99.90
14670;DHT22;7423;48.722;9.350;2023-05-07T15:20:36;19.40;99.90
14670;DHT22;7423;48.722;9.350;2023-05-07T15:23:03;19.40;99.90
14670;DHT22;7423;48.722;9.350;2023-05-07T15:25:32;19.40;99.90
14670;DHT22;7423;48.722;9.350;2023-05-07T15:28:00;19.30;99.90
14670;DHT22;7423;48.722;9.350;2023-05-07T15:30:27;19.30;99.90
14670;DHT22;7423;48.722;9.350;2023-05-07T15:32:54;19.40;99.90
14670;DHT22;7423;48.722;9.350;2023-05-07T15:35:22;19.40;99.90
14670;DHT22;7423;48.722;9.350;2023-05-07T15:37:49;19.40;99.90
14670;DHT22;7423;48.722;9.350;2023-05-07T15:40:16;19.40;99.90
14670;DHT22;7423;48.722;9.350;2023-05-07T15:42:44;19.40;99.90
14670;DHT22;7423;48.722;9.350;2023-05-07T15:45:11;19.30;99.90
14670;DHT22;7423;48.722;9.350;2023-05-07T15:47:39;19.40;99.90
14670;DHT22;7423;48.722;9.350;2023-05-07T15:50:06;19.30;99.90
14670;DHT22;7423;48.722;9.350;2023-05-07T15:52:33;19.40;99.90
14670;DHT22;7423;48.722;9.350;2023-05-07T15:55:00;19.40;99.90
14670;DHT22;7423;48.722;9.350;2023-05-07T15:57:29;19.40;99.90
14670;DHT22;7423;48.722;9.350;2023-05-07T15:59:55;19.80;99.90
14670;DHT22;7423;48.722;9.350;2023-05-07T16:02:23;19.40;99.90
14670;DHT22;7423;48.722;9.350;2023-05-07T16:04:50;19.40;99.90